sensor_id;sensor_type;location;lat;lon;timestamp;P1;durP1;ratioP1;P2;durP2;ratioP2
22260;SDS011;11299;43.202;27.920;2023-04-24T00:01:23;25.63;;;15.20;;
22260;SDS011;11299;43.202;27.920;2023-04-24T00:03:48;26.23;;;13.93;;
22260;SDS011;11299;43.202;27.920;2023-04-24T00:06:14;21.70;;;13.05;;
22260;SDS011;11299;43.202;27.920;2023-04-24T00:08:42;20.80;;;10.60;;
22260;SDS011;11299;43.202;27.920;2023-04-24T00:11:08;18.13;;;10.05;;
22260;SDS011;11299;43.202;27.920;2023-04-24T00:13:34;22.27;;;10.40;;
22260;SDS011;11299;43.202;27.920;2023-04-24T00:16:00;14.45;;;8.73;;
22260;SDS011;11299;43.202;27.920;2023-04-24T00:18:26;16.60;;;9.20;;
22260;SDS011;11299;43.202;27.920;2023-04-24T00:20:51;15.35;;;9.60;;
22260;SDS011;11299;43.202;27.920;2023-04-24T00:23:17;17.92;;;9.50;;
22260;SDS011;11299;43.202;27.920;2023-04-24T00:25:42;19.08;;;9.90;;
22260;SDS011;11299;43.202;27.920;2023-04-24T00:28:08;22.60;;;10.70;;
22260;SDS011;11299;43.202;27.920;2023-04-24T00:30:33;22.55;;;12.38;;
22260;SDS011;11299;43.202;27.920;2023-04-24T00:32:58;27.25;;;12.15;;
22260;SDS011;11299;43.202;27.920;2023-04-24T00:35:24;20.65;;;10.85;;
22260;SDS011;11299;43.202;27.920;2023-04-24T00:37:49;23.08;;;12.00;;
22260;SDS011;11299;43.202;27.920;2023-04-24T00:40:15;19.45;;;11.63;;
22260;SDS011;11299;43.202;27.920;2023-04-24T00:42:40;18.52;;;11.57;;
22260;SDS011;11299;43.202;27.920;2023-04-24T00:45:06;22.15;;;10.40;;
22260;SDS011;11299;43.202;27.920;2023-04-24T00:47:33;25.33;;;14.88;;
22260;SDS011;11299;43.202;27.920;2023-04-24T00:50:00;23.30;;;15.23;;
22260;SDS011;11299;43.202;27.920;2023-04-24T00:52:29;29.77;;;16.08;;
22260;SDS011;11299;43.202;27.920;2023-04-24T00:54:57;26.63;;;16.20;;
22260;SDS011;11299;43.202;27.920;2023-04-24T00:57:23;21.63;;;14.65;;
22260;SDS011;11299;43.202;27.920;2023-04-24T00:59:50;33.05;;;20.40;;
22260;SDS011;11299;43.202;27.920;2023-04-24T01:02:16;33.85;;;22.23;;
22260;SDS011;11299;43.202;27.920;2023-04-24T01:04:42;38.08;;;23.90;;
22260;SDS011;11299;43.202;27.920;2023-04-24T01:07:08;37.53;;;23.45;;
22260;SDS011;11299;43.202;27.920;2023-04-24T01:09:39;45.33;;;24.92;;
22260;SDS011;11299;43.202;27.920;2023-04-24T01:12:08;38.72;;;27.08;;
22260;SDS011;11299;43.202;27.920;2023-04-24T01:14:34;46.35;;;24.35;;
22260;SDS011;11299;43.202;27.920;2023-04-24T01:17:00;36.08;;;20.10;;
22260;SDS011;11299;43.202;27.920;2023-04-24T01:19:25;32.38;;;19.13;;
22260;SDS011;11299;43.202;27.920;2023-04-24T01:21:51;32.05;;;19.63;;
22260;SDS011;11299;43.202;27.920;2023-04-24T01:24:19;31.60;;;18.08;;
22260;SDS011;11299;43.202;27.920;2023-04-24T01:26:45;36.55;;;17.60;;
22260;SDS011;11299;43.202;27.920;2023-04-24T01:29:11;31.90;;;17.10;;
22260;SDS011;11299;43.202;27.920;2023-04-24T01:31:37;27.50;;;17.08;;
22260;SDS011;11299;43.202;27.920;2023-04-24T01:34:04;33.85;;;17.45;;
22260;SDS011;11299;43.202;27.920;2023-04-24T01:36:30;32.25;;;16.45;;
22260;SDS011;11299;43.202;27.920;2023-04-24T01:38:58;27.80;;;16.70;;
22260;SDS011;11299;43.202;27.920;2023-04-24T01:41:23;23.02;;;15.95;;
22260;SDS011;11299;43.202;27.920;2023-04-24T01:43:49;26.10;;;16.70;;
22260;SDS011;11299;43.202;27.920;2023-04-24T01:46:15;26.27;;;16.50;;
22260;SDS011;11299;43.202;27.920;2023-04-24T01:48:41;27.25;;;15.05;;
22260;SDS011;11299;43.202;27.920;2023-04-24T01:51:07;32.53;;;14.43;;
22260;SDS011;11299;43.202;27.920;2023-04-24T01:53:32;22.10;;;13.93;;
22260;SDS011;11299;43.202;27.920;2023-04-24T01:55:58;27.55;;;15.50;;
22260;SDS011;11299;43.202;27.920;2023-04-24T01:58:23;23.30;;;14.00;;
22260;SDS011;11299;43.202;27.920;2023-04-24T02:00:49;28.98;;;15.13;;
22260;SDS011;11299;43.202;27.920;2023-04-24T02:03:15;29.95;;;17.30;;
22260;SDS011;11299;43.202;27.920;2023-04-24T02:05:43;30.48;;;16.73;;
22260;SDS011;11299;43.202;27.920;2023-04-24T02:08:10;32.67;;;17.55;;
22260;SDS011;11299;43.202;27.920;2023-04-24T02:10:35;35.85;;;19.25;;
22260;SDS011;11299;43.202;27.920;2023-04-24T02:13:00;33.10;;;19.75;;
22260;SDS011;11299;43.202;27.920;2023-04-24T02:15:26;30.02;;;19.17;;
22260;SDS011;11299;43.202;27.920;2023-04-24T02:17:51;34.70;;;17.88;;
22260;SDS011;11299;43.202;27.920;2023-04-24T02:20:17;31.17;;;17.88;;
22260;SDS011;11299;43.202;27.920;2023-04-24T02:22:42;26.80;;;17.00;;
22260;SDS011;11299;43.202;27.920;2023-04-24T02:25:08;31.13;;;17.55;;
22260;SDS011;11299;43.202;27.920;2023-04-24T02:27:33;26.80;;;16.15;;
22260;SDS011;11299;43.202;27.920;2023-04-24T02:29:59;31.15;;;15.93;;
22260;SDS011;11299;43.202;27.920;2023-04-24T02:32:25;32.15;;;15.80;;
22260;SDS011;11299;43.202;27.920;2023-04-24T02:34:51;33.00;;;16.77;;
22260;SDS011;11299;43.202;27.920;2023-04-24T02:37:16;31.30;;;15.90;;
22260;SDS011;11299;43.202;27.920;2023-04-24T02:39:41;40.90;;;16.00;;
22260;SDS011;11299;43.202;27.920;2023-04-24T02:42:07;25.33;;;15.80;;
22260;SDS011;11299;43.202;27.920;2023-04-24T02:44:33;25.85;;;14.70;;
22260;SDS011;11299;43.202;27.920;2023-04-24T02:46:58;26.25;;;15.65;;
22260;SDS011;11299;43.202;27.920;2023-04-24T02:49:24;26.17;;;14.02;;
22260;SDS011;11299;43.202;27.920;2023-04-24T02:51:49;24.67;;;14.43;;
22260;SDS011;11299;43.202;27.920;2023-04-24T02:54:14;30.58;;;14.85;;
22260;SDS011;11299;43.202;27.920;2023-04-24T02:56:40;24.27;;;13.70;;
22260;SDS011;11299;43.202;27.920;2023-04-24T02:59:05;21.00;;;13.70;;
22260;SDS011;11299;43.202;27.920;2023-04-24T03:01:31;22.33;;;12.45;;
22260;SDS011;11299;43.202;27.920;2023-04-24T03:03:56;25.58;;;13.05;;
22260;SDS011;11299;43.202;27.920;2023-04-24T03:06:22;26.17;;;13.73;;
22260;SDS011;11299;43.202;27.920;2023-04-24T03:08:47;20.70;;;13.35;;
22260;SDS011;11299;43.202;27.920;2023-04-24T03:11:13;23.05;;;13.13;;
22260;SDS011;11299;43.202;27.920;2023-04-24T03:13:38;23.48;;;16.25;;
22260;SDS011;11299;43.202;27.920;2023-04-24T03:16:04;23.20;;;15.60;;
22260;SDS011;11299;43.202;27.920;2023-04-24T03:18:30;22.92;;;13.95;;
22260;SDS011;11299;43.202;27.920;2023-04-24T03:20:56;23.13;;;12.65;;
22260;SDS011;11299;43.202;27.920;2023-04-24T03:23:21;25.42;;;13.93;;
22260;SDS011;11299;43.202;27.920;2023-04-24T03:25:47;21.80;;;12.52;;
22260;SDS011;11299;43.202;27.920;2023-04-24T03:28:13;23.70;;;13.20;;
22260;SDS011;11299;43.202;27.920;2023-04-24T03:30:39;28.17;;;17.60;;
22260;SDS011;11299;43.202;27.920;2023-04-24T03:33:04;24.90;;;11.75;;
22260;SDS011;11299;43.202;27.920;2023-04-24T03:35:30;26.83;;;13.52;;
22260;SDS011;11299;43.202;27.920;2023-04-24T03:37:56;22.17;;;11.93;;
22260;SDS011;11299;43.202;27.920;2023-04-24T03:40:21;19.40;;;11.10;;
22260;SDS011;11299;43.202;27.920;2023-04-24T03:42:47;20.75;;;11.82;;
22260;SDS011;11299;43.202;27.920;2023-04-24T03:45:12;24.77;;;11.38;;
22260;SDS011;11299;43.202;27.920;2023-04-24T03:47:38;19.85;;;11.57;;
22260;SDS011;11299;43.202;27.920;2023-04-24T03:50:03;19.25;;;11.35;;
22260;SDS011;11299;43.202;27.920;2023-04-24T03:52:29;21.90;;;12.00;;
22260;SDS011;11299;43.202;27.920;2023-04-24T03:54:54;22.38;;;10.75;;
22260;SDS011;11299;43.202;27.920;2023-04-24T03:57:20;21.80;;;11.07;;
22260;SDS011;11299;43.202;27.920;2023-04-24T03:59:46;20.92;;;11.27;;
22260;SDS011;11299;43.202;27.920;2023-04-24T04:02:11;17.95;;;11.52;;
22260;SDS011;11299;43.202;27.920;2023-04-24T04:04:37;23.55;;;10.88;;
22260;SDS011;11299;43.202;27.920;2023-04-24T04:07:02;21.77;;;11.27;;
22260;SDS011;11299;43.202;27.920;2023-04-24T04:09:28;16.58;;;11.07;;
22260;SDS011;11299;43.202;27.920;2023-04-24T04:11:54;24.52;;;10.38;;
22260;SDS011;11299;43.202;27.920;2023-04-24T04:14:20;25.70;;;12.23;;
22260;SDS011;11299;43.202;27.920;2023-04-24T04:16:46;30.05;;;12.98;;
22260;SDS011;11299;43.202;27.920;2023-04-24T04:19:12;20.98;;;10.98;;
22260;SDS011;11299;43.202;27.920;2023-04-24T04:21:37;23.70;;;11.50;;
22260;SDS011;11299;43.202;27.920;2023-04-24T04:24:03;24.65;;;12.05;;
22260;SDS011;11299;43.202;27.920;2023-04-24T04:26:30;20.10;;;11.25;;
22260;SDS011;11299;43.202;27.920;2023-04-24T04:28:57;21.50;;;11.05;;
22260;SDS011;11299;43.202;27.920;2023-04-24T04:31:23;24.73;;;11.50;;
22260;SDS011;11299;43.202;27.920;2023-04-24T04:33:49;27.80;;;11.43;;
22260;SDS011;11299;43.202;27.920;2023-04-24T04:36:15;23.52;;;11.18;;
22260;SDS011;11299;43.202;27.920;2023-04-24T04:38:42;27.75;;;10.55;;
22260;SDS011;11299;43.202;27.920;2023-04-24T04:41:08;17.77;;;8.77;;
22260;SDS011;11299;43.202;27.920;2023-04-24T04:43:33;21.85;;;8.88;;
22260;SDS011;11299;43.202;27.920;2023-04-24T04:45:59;19.33;;;10.73;;
22260;SDS011;11299;43.202;27.920;2023-04-24T04:48:26;18.05;;;11.52;;
22260;SDS011;11299;43.202;27.920;2023-04-24T04:50:52;24.90;;;10.48;;
22260;SDS011;11299;43.202;27.920;2023-04-24T04:53:17;21.95;;;10.20;;
22260;SDS011;11299;43.202;27.920;2023-04-24T04:55:43;16.90;;;10.13;;
22260;SDS011;11299;43.202;27.920;2023-04-24T04:58:08;18.75;;;8.82;;
22260;SDS011;11299;43.202;27.920;2023-04-24T05:00:34;26.35;;;9.23;;
22260;SDS011;11299;43.202;27.920;2023-04-24T05:03:02;20.67;;;8.32;;
22260;SDS011;11299;43.202;27.920;2023-04-24T05:05:28;16.85;;;8.50;;
22260;SDS011;11299;43.202;27.920;2023-04-24T05:07:54;16.75;;;8.43;;
22260;SDS011;11299;43.202;27.920;2023-04-24T05:10:19;16.08;;;7.75;;
22260;SDS011;11299;43.202;27.920;2023-04-24T05:12:45;24.00;;;8.63;;
22260;SDS011;11299;43.202;27.920;2023-04-24T05:15:10;15.88;;;7.30;;
22260;SDS011;11299;43.202;27.920;2023-04-24T05:17:36;15.45;;;7.53;;
22260;SDS011;11299;43.202;27.920;2023-04-24T05:20:02;10.35;;;6.13;;
22260;SDS011;11299;43.202;27.920;2023-04-24T05:22:30;11.98;;;5.93;;
22260;SDS011;11299;43.202;27.920;2023-04-24T05:24:56;10.13;;;5.70;;
22260;SDS011;11299;43.202;27.920;2023-04-24T05:27:22;9.88;;;5.10;;
22260;SDS011;11299;43.202;27.920;2023-04-24T05:29:47;11.88;;;5.45;;
22260;SDS011;11299;43.202;27.920;2023-04-24T05:32:13;9.75;;;5.40;;
22260;SDS011;11299;43.202;27.920;2023-04-24T05:34:38;10.40;;;5.72;;
22260;SDS011;11299;43.202;27.920;2023-04-24T05:37:04;12.27;;;5.78;;
22260;SDS011;11299;43.202;27.920;2023-04-24T05:39:33;8.68;;;5.45;;
22260;SDS011;11299;43.202;27.920;2023-04-24T05:41:58;16.55;;;6.20;;
22260;SDS011;11299;43.202;27.920;2023-04-24T05:44:24;9.00;;;5.22;;
22260;SDS011;11299;43.202;27.920;2023-04-24T05:46:50;8.25;;;5.13;;
22260;SDS011;11299;43.202;27.920;2023-04-24T05:49:16;12.52;;;5.20;;
22260;SDS011;11299;43.202;27.920;2023-04-24T05:51:41;9.77;;;5.20;;
22260;SDS011;11299;43.202;27.920;2023-04-24T05:54:07;13.55;;;4.88;;
22260;SDS011;11299;43.202;27.920;2023-04-24T05:56:33;9.48;;;5.28;;
22260;SDS011;11299;43.202;27.920;2023-04-24T05:58:58;11.40;;;5.47;;
22260;SDS011;11299;43.202;27.920;2023-04-24T06:01:24;14.07;;;6.10;;
22260;SDS011;11299;43.202;27.920;2023-04-24T06:03:50;9.48;;;4.88;;
22260;SDS011;11299;43.202;27.920;2023-04-24T06:06:15;11.30;;;5.70;;
22260;SDS011;11299;43.202;27.920;2023-04-24T06:08:41;10.35;;;5.07;;
22260;SDS011;11299;43.202;27.920;2023-04-24T06:11:09;15.93;;;5.72;;
22260;SDS011;11299;43.202;27.920;2023-04-24T06:13:34;10.85;;;5.32;;
22260;SDS011;11299;43.202;27.920;2023-04-24T06:16:00;11.60;;;5.22;;
22260;SDS011;11299;43.202;27.920;2023-04-24T06:18:25;11.55;;;4.95;;
22260;SDS011;11299;43.202;27.920;2023-04-24T06:20:51;10.63;;;5.05;;
22260;SDS011;11299;43.202;27.920;2023-04-24T06:23:16;11.98;;;4.45;;
22260;SDS011;11299;43.202;27.920;2023-04-24T06:25:42;16.20;;;5.40;;
22260;SDS011;11299;43.202;27.920;2023-04-24T06:28:07;9.35;;;4.78;;
22260;SDS011;11299;43.202;27.920;2023-04-24T06:30:33;8.57;;;4.55;;
22260;SDS011;11299;43.202;27.920;2023-04-24T06:32:58;10.15;;;4.32;;
22260;SDS011;11299;43.202;27.920;2023-04-24T06:35:24;9.50;;;4.57;;
22260;SDS011;11299;43.202;27.920;2023-04-24T06:37:49;10.30;;;4.57;;
22260;SDS011;11299;43.202;27.920;2023-04-24T06:40:16;8.50;;;4.35;;
22260;SDS011;11299;43.202;27.920;2023-04-24T06:42:43;10.38;;;4.53;;
22260;SDS011;11299;43.202;27.920;2023-04-24T06:45:09;11.07;;;4.50;;
22260;SDS011;11299;43.202;27.920;2023-04-24T06:47:35;10.48;;;4.60;;
22260;SDS011;11299;43.202;27.920;2023-04-24T06:50:01;8.00;;;4.95;;
22260;SDS011;11299;43.202;27.920;2023-04-24T06:52:26;10.63;;;4.93;;
22260;SDS011;11299;43.202;27.920;2023-04-24T06:54:52;8.70;;;4.70;;
22260;SDS011;11299;43.202;27.920;2023-04-24T06:57:17;8.20;;;4.25;;
22260;SDS011;11299;43.202;27.920;2023-04-24T06:59:43;9.70;;;4.90;;
22260;SDS011;11299;43.202;27.920;2023-04-24T07:02:08;8.88;;;4.82;;
22260;SDS011;11299;43.202;27.920;2023-04-24T07:04:34;8.63;;;5.20;;
22260;SDS011;11299;43.202;27.920;2023-04-24T07:06:59;12.75;;;4.60;;
22260;SDS011;11299;43.202;27.920;2023-04-24T07:09:26;7.90;;;4.70;;
22260;SDS011;11299;43.202;27.920;2023-04-24T07:11:52;12.82;;;4.75;;
22260;SDS011;11299;43.202;27.920;2023-04-24T07:14:18;15.18;;;5.60;;
22260;SDS011;11299;43.202;27.920;2023-04-24T07:16:44;10.38;;;5.20;;
22260;SDS011;11299;43.202;27.920;2023-04-24T07:19:10;9.98;;;5.13;;
22260;SDS011;11299;43.202;27.920;2023-04-24T07:21:37;10.75;;;5.05;;
22260;SDS011;11299;43.202;27.920;2023-04-24T07:24:02;9.07;;;5.05;;
22260;SDS011;11299;43.202;27.920;2023-04-24T07:26:29;6.30;;;4.40;;
22260;SDS011;11299;43.202;27.920;2023-04-24T07:28:55;10.63;;;4.85;;
22260;SDS011;11299;43.202;27.920;2023-04-24T07:31:21;11.57;;;4.97;;
22260;SDS011;11299;43.202;27.920;2023-04-24T07:33:46;8.98;;;5.22;;
22260;SDS011;11299;43.202;27.920;2023-04-24T07:36:12;9.25;;;4.47;;
22260;SDS011;11299;43.202;27.920;2023-04-24T07:38:42;9.85;;;5.00;;
22260;SDS011;11299;43.202;27.920;2023-04-24T07:41:08;12.57;;;5.28;;
22260;SDS011;11299;43.202;27.920;2023-04-24T07:43:33;11.13;;;4.78;;
22260;SDS011;11299;43.202;27.920;2023-04-24T07:45:59;11.48;;;4.82;;
22260;SDS011;11299;43.202;27.920;2023-04-24T07:48:25;7.95;;;4.30;;
22260;SDS011;11299;43.202;27.920;2023-04-24T07:50:51;8.77;;;4.45;;
22260;SDS011;11299;43.202;27.920;2023-04-24T07:53:17;9.15;;;4.10;;
22260;SDS011;11299;43.202;27.920;2023-04-24T07:55:42;11.23;;;4.75;;
22260;SDS011;11299;43.202;27.920;2023-04-24T07:58:08;10.88;;;4.35;;
22260;SDS011;11299;43.202;27.920;2023-04-24T08:00:33;12.50;;;4.40;;
22260;SDS011;11299;43.202;27.920;2023-04-24T08:02:59;13.10;;;3.95;;
22260;SDS011;11299;43.202;27.920;2023-04-24T08:05:25;13.45;;;4.20;;
22260;SDS011;11299;43.202;27.920;2023-04-24T08:07:52;6.22;;;3.30;;
22260;SDS011;11299;43.202;27.920;2023-04-24T08:10:18;9.73;;;4.60;;
22260;SDS011;11299;43.202;27.920;2023-04-24T08:12:43;8.43;;;4.20;;
22260;SDS011;11299;43.202;27.920;2023-04-24T08:15:09;8.30;;;4.45;;
22260;SDS011;11299;43.202;27.920;2023-04-24T08:17:35;9.68;;;4.35;;
22260;SDS011;11299;43.202;27.920;2023-04-24T08:20:01;10.02;;;4.50;;
22260;SDS011;11299;43.202;27.920;2023-04-24T08:22:27;9.32;;;4.22;;
22260;SDS011;11299;43.202;27.920;2023-04-24T08:24:53;9.65;;;4.18;;
22260;SDS011;11299;43.202;27.920;2023-04-24T08:27:19;12.00;;;4.78;;
22260;SDS011;11299;43.202;27.920;2023-04-24T08:29:45;9.80;;;4.10;;
22260;SDS011;11299;43.202;27.920;2023-04-24T08:32:10;9.90;;;4.07;;
22260;SDS011;11299;43.202;27.920;2023-04-24T08:34:35;8.27;;;4.40;;
22260;SDS011;11299;43.202;27.920;2023-04-24T08:37:02;13.20;;;4.68;;
22260;SDS011;11299;43.202;27.920;2023-04-24T08:39:28;11.10;;;3.95;;
22260;SDS011;11299;43.202;27.920;2023-04-24T08:41:55;10.45;;;4.93;;
22260;SDS011;11299;43.202;27.920;2023-04-24T08:44:21;9.73;;;4.68;;
22260;SDS011;11299;43.202;27.920;2023-04-24T08:46:47;7.45;;;4.00;;
22260;SDS011;11299;43.202;27.920;2023-04-24T08:49:14;13.07;;;4.53;;
22260;SDS011;11299;43.202;27.920;2023-04-24T08:51:41;10.45;;;4.80;;
22260;SDS011;11299;43.202;27.920;2023-04-24T08:54:07;11.18;;;5.05;;
22260;SDS011;11299;43.202;27.920;2023-04-24T08:56:33;9.93;;;4.43;;
22260;SDS011;11299;43.202;27.920;2023-04-24T08:59:03;9.80;;;4.55;;
22260;SDS011;11299;43.202;27.920;2023-04-24T09:01:29;8.60;;;4.60;;
22260;SDS011;11299;43.202;27.920;2023-04-24T09:03:58;12.45;;;4.93;;
22260;SDS011;11299;43.202;27.920;2023-04-24T09:06:28;10.48;;;4.95;;
22260;SDS011;11299;43.202;27.920;2023-04-24T09:08:55;14.60;;;5.18;;
22260;SDS011;11299;43.202;27.920;2023-04-24T09:11:24;13.00;;;4.57;;
22260;SDS011;11299;43.202;27.920;2023-04-24T09:13:50;11.57;;;4.47;;
22260;SDS011;11299;43.202;27.920;2023-04-24T09:16:16;12.35;;;4.15;;
22260;SDS011;11299;43.202;27.920;2023-04-24T09:18:42;9.27;;;4.85;;
22260;SDS011;11299;43.202;27.920;2023-04-24T09:21:08;11.18;;;4.68;;
22260;SDS011;11299;43.202;27.920;2023-04-24T09:23:34;9.13;;;4.47;;
22260;SDS011;11299;43.202;27.920;2023-04-24T09:26:01;10.27;;;4.20;;
22260;SDS011;11299;43.202;27.920;2023-04-24T09:28:31;7.47;;;4.30;;
22260;SDS011;11299;43.202;27.920;2023-04-24T09:31:07;9.00;;;4.55;;
22260;SDS011;11299;43.202;27.920;2023-04-24T09:33:53;7.82;;;4.15;;
22260;SDS011;11299;43.202;27.920;2023-04-24T09:39:00;9.80;;;4.60;;
22260;SDS011;11299;43.202;27.920;2023-04-24T09:41:26;11.63;;;4.60;;
22260;SDS011;11299;43.202;27.920;2023-04-24T09:43:54;9.13;;;4.30;;
22260;SDS011;11299;43.202;27.920;2023-04-24T09:46:20;7.15;;;4.07;;
22260;SDS011;11299;43.202;27.920;2023-04-24T09:48:49;7.10;;;3.65;;
22260;SDS011;11299;43.202;27.920;2023-04-24T09:51:14;9.82;;;4.45;;
22260;SDS011;11299;43.202;27.920;2023-04-24T09:53:44;9.98;;;4.10;;
22260;SDS011;11299;43.202;27.920;2023-04-24T09:56:11;12.75;;;4.55;;
22260;SDS011;11299;43.202;27.920;2023-04-24T09:58:39;8.23;;;4.28;;
22260;SDS011;11299;43.202;27.920;2023-04-24T10:01:05;10.50;;;4.53;;
22260;SDS011;11299;43.202;27.920;2023-04-24T10:03:31;13.30;;;4.13;;
22260;SDS011;11299;43.202;27.920;2023-04-24T10:05:58;8.60;;;4.57;;
22260;SDS011;11299;43.202;27.920;2023-04-24T10:08:25;10.25;;;4.85;;
22260;SDS011;11299;43.202;27.920;2023-04-24T10:10:51;12.38;;;4.70;;
22260;SDS011;11299;43.202;27.920;2023-04-24T10:13:17;7.25;;;4.20;;
22260;SDS011;11299;43.202;27.920;2023-04-24T10:15:43;9.13;;;4.35;;
22260;SDS011;11299;43.202;27.920;2023-04-24T10:18:10;15.23;;;4.55;;
22260;SDS011;11299;43.202;27.920;2023-04-24T10:20:36;17.90;;;4.88;;
22260;SDS011;11299;43.202;27.920;2023-04-24T10:23:04;9.10;;;4.50;;
22260;SDS011;11299;43.202;27.920;2023-04-24T10:25:30;7.75;;;4.30;;
22260;SDS011;11299;43.202;27.920;2023-04-24T10:27:57;8.15;;;4.68;;
22260;SDS011;11299;43.202;27.920;2023-04-24T10:30:28;14.82;;;6.13;;
22260;SDS011;11299;43.202;27.920;2023-04-24T10:32:55;12.50;;;5.28;;
22260;SDS011;11299;43.202;27.920;2023-04-24T10:35:21;9.25;;;4.90;;
22260;SDS011;11299;43.202;27.920;2023-04-24T10:37:52;10.98;;;4.10;;
22260;SDS011;11299;43.202;27.920;2023-04-24T10:40:30;10.05;;;4.57;;
22260;SDS011;11299;43.202;27.920;2023-04-24T10:42:58;9.95;;;4.38;;
22260;SDS011;11299;43.202;27.920;2023-04-24T10:45:24;6.20;;;3.90;;
22260;SDS011;11299;43.202;27.920;2023-04-24T10:50:23;8.75;;;4.80;;
22260;SDS011;11299;43.202;27.920;2023-04-24T10:52:55;13.40;;;4.43;;
22260;SDS011;11299;43.202;27.920;2023-04-24T10:55:56;8.70;;;4.60;;
22260;SDS011;11299;43.202;27.920;2023-04-24T10:58:22;15.13;;;5.63;;
22260;SDS011;11299;43.202;27.920;2023-04-24T11:00:55;10.57;;;4.82;;
22260;SDS011;11299;43.202;27.920;2023-04-24T11:03:28;10.88;;;4.65;;
22260;SDS011;11299;43.202;27.920;2023-04-24T11:06:05;14.02;;;4.70;;
22260;SDS011;11299;43.202;27.920;2023-04-24T11:08:44;7.20;;;4.78;;
22260;SDS011;11299;43.202;27.920;2023-04-24T11:21:47;9.85;;;5.00;;
22260;SDS011;11299;43.202;27.920;2023-04-24T11:24:30;13.18;;;6.03;;
22260;SDS011;11299;43.202;27.920;2023-04-24T11:34:51;8.30;;;4.35;;
22260;SDS011;11299;43.202;27.920;2023-04-24T11:37:22;8.25;;;4.75;;
22260;SDS011;11299;43.202;27.920;2023-04-24T11:40:09;15.15;;;4.90;;
22260;SDS011;11299;43.202;27.920;2023-04-24T11:42:40;7.38;;;4.53;;
22260;SDS011;11299;43.202;27.920;2023-04-24T11:45:07;7.22;;;4.40;;
22260;SDS011;11299;43.202;27.920;2023-04-24T11:47:37;9.02;;;4.90;;
22260;SDS011;11299;43.202;27.920;2023-04-24T11:50:04;9.02;;;4.05;;
22260;SDS011;11299;43.202;27.920;2023-04-24T11:52:32;9.80;;;4.13;;
22260;SDS011;11299;43.202;27.920;2023-04-24T11:55:01;7.82;;;4.75;;
22260;SDS011;11299;43.202;27.920;2023-04-24T11:57:28;10.77;;;4.10;;
22260;SDS011;11299;43.202;27.920;2023-04-24T11:59:58;9.98;;;4.07;;
22260;SDS011;11299;43.202;27.920;2023-04-24T12:02:25;6.38;;;3.90;;
22260;SDS011;11299;43.202;27.920;2023-04-24T12:04:55;8.02;;;4.03;;
22260;SDS011;11299;43.202;27.920;2023-04-24T12:07:21;9.52;;;3.78;;
22260;SDS011;11299;43.202;27.920;2023-04-24T12:09:48;6.32;;;3.65;;
22260;SDS011;11299;43.202;27.920;2023-04-24T12:12:28;12.13;;;4.18;;
22260;SDS011;11299;43.202;27.920;2023-04-24T12:14:57;7.90;;;4.20;;
22260;SDS011;11299;43.202;27.920;2023-04-24T12:17:28;12.02;;;4.40;;
22260;SDS011;11299;43.202;27.920;2023-04-24T12:19:59;11.07;;;4.43;;
22260;SDS011;11299;43.202;27.920;2023-04-24T12:22:26;5.75;;;3.88;;
22260;SDS011;11299;43.202;27.920;2023-04-24T12:24:55;8.00;;;3.95;;
22260;SDS011;11299;43.202;27.920;2023-04-24T12:27:22;8.57;;;3.85;;
22260;SDS011;11299;43.202;27.920;2023-04-24T12:29:51;6.15;;;3.42;;
22260;SDS011;11299;43.202;27.920;2023-04-24T12:32:23;7.18;;;4.00;;
22260;SDS011;11299;43.202;27.920;2023-04-24T12:34:50;5.82;;;3.55;;
22260;SDS011;11299;43.202;27.920;2023-04-24T12:37:16;9.15;;;3.70;;
22260;SDS011;11299;43.202;27.920;2023-04-24T12:42:28;8.10;;;4.38;;
22260;SDS011;11299;43.202;27.920;2023-04-24T12:44:59;9.80;;;4.05;;
22260;SDS011;11299;43.202;27.920;2023-04-24T12:47:29;9.55;;;3.70;;
22260;SDS011;11299;43.202;27.920;2023-04-24T12:49:55;10.00;;;4.10;;
22260;SDS011;11299;43.202;27.920;2023-04-24T12:52:24;9.98;;;4.10;;
22260;SDS011;11299;43.202;27.920;2023-04-24T12:54:54;9.45;;;4.20;;
22260;SDS011;11299;43.202;27.920;2023-04-24T12:57:21;6.72;;;3.42;;
22260;SDS011;11299;43.202;27.920;2023-04-24T12:59:53;12.90;;;4.72;;
22260;SDS011;11299;43.202;27.920;2023-04-24T13:02:22;8.75;;;4.35;;
22260;SDS011;11299;43.202;27.920;2023-04-24T13:04:48;13.75;;;4.18;;
22260;SDS011;11299;43.202;27.920;2023-04-24T13:07:15;9.55;;;5.35;;
22260;SDS011;11299;43.202;27.920;2023-04-24T13:09:41;13.82;;;7.03;;
22260;SDS011;11299;43.202;27.920;2023-04-24T13:12:08;12.38;;;6.30;;
22260;SDS011;11299;43.202;27.920;2023-04-24T13:14:34;15.20;;;7.10;;
22260;SDS011;11299;43.202;27.920;2023-04-24T13:17:00;8.63;;;4.80;;
22260;SDS011;11299;43.202;27.920;2023-04-24T13:19:26;13.90;;;4.95;;
22260;SDS011;11299;43.202;27.920;2023-04-24T13:21:55;10.48;;;4.50;;
22260;SDS011;11299;43.202;27.920;2023-04-24T13:24:22;7.97;;;4.15;;
22260;SDS011;11299;43.202;27.920;2023-04-24T13:26:54;11.43;;;4.65;;
22260;SDS011;11299;43.202;27.920;2023-04-24T13:29:19;10.30;;;4.28;;
22260;SDS011;11299;43.202;27.920;2023-04-24T13:31:49;9.05;;;4.40;;
22260;SDS011;11299;43.202;27.920;2023-04-24T13:34:16;12.35;;;4.28;;
22260;SDS011;11299;43.202;27.920;2023-04-24T13:36:42;10.60;;;4.93;;
22260;SDS011;11299;43.202;27.920;2023-04-24T13:39:08;7.75;;;4.25;;
22260;SDS011;11299;43.202;27.920;2023-04-24T13:41:33;8.23;;;3.47;;
22260;SDS011;11299;43.202;27.920;2023-04-24T13:44:00;9.13;;;4.00;;
22260;SDS011;11299;43.202;27.920;2023-04-24T13:46:25;10.73;;;3.97;;
22260;SDS011;11299;43.202;27.920;2023-04-24T13:48:51;6.90;;;3.80;;
22260;SDS011;11299;43.202;27.920;2023-04-24T13:51:17;8.35;;;4.07;;
22260;SDS011;11299;43.202;27.920;2023-04-24T13:53:43;12.02;;;3.78;;
22260;SDS011;11299;43.202;27.920;2023-04-24T13:56:08;8.60;;;3.97;;
22260;SDS011;11299;43.202;27.920;2023-04-24T13:58:34;6.93;;;4.22;;
22260;SDS011;11299;43.202;27.920;2023-04-24T14:01:02;7.00;;;3.60;;
22260;SDS011;11299;43.202;27.920;2023-04-24T14:03:28;11.18;;;3.85;;
22260;SDS011;11299;43.202;27.920;2023-04-24T14:05:53;13.27;;;4.82;;
22260;SDS011;11299;43.202;27.920;2023-04-24T14:08:19;11.25;;;3.78;;
22260;SDS011;11299;43.202;27.920;2023-04-24T14:10:44;10.75;;;4.28;;
22260;SDS011;11299;43.202;27.920;2023-04-24T14:13:10;5.60;;;3.80;;
22260;SDS011;11299;43.202;27.920;2023-04-24T14:15:36;10.77;;;4.28;;
22260;SDS011;11299;43.202;27.920;2023-04-24T14:18:03;9.10;;;4.10;;
22260;SDS011;11299;43.202;27.920;2023-04-24T14:20:29;10.75;;;3.75;;
22260;SDS011;11299;43.202;27.920;2023-04-24T14:22:54;7.70;;;3.70;;
22260;SDS011;11299;43.202;27.920;2023-04-24T14:25:20;10.68;;;3.97;;
22260;SDS011;11299;43.202;27.920;2023-04-24T14:27:47;8.35;;;3.65;;
22260;SDS011;11299;43.202;27.920;2023-04-24T14:30:13;10.07;;;4.00;;
22260;SDS011;11299;43.202;27.920;2023-04-24T14:32:40;7.68;;;3.78;;
22260;SDS011;11299;43.202;27.920;2023-04-24T14:35:06;11.43;;;4.10;;
22260;SDS011;11299;43.202;27.920;2023-04-24T14:37:32;12.68;;;4.47;;
22260;SDS011;11299;43.202;27.920;2023-04-24T14:39:57;7.88;;;4.00;;
22260;SDS011;11299;43.202;27.920;2023-04-24T14:42:23;12.25;;;4.13;;
22260;SDS011;11299;43.202;27.920;2023-04-24T14:44:48;10.68;;;4.47;;